sensor_id;sensor_type;location;lat;lon;timestamp;temperature;humidity
22813;DHT22;11573;51.334;3.244;2022-08-25T00:00:12;21.50;99.90
22813;DHT22;11573;51.334;3.244;2022-08-25T00:02:39;21.60;99.90
22813;DHT22;11573;51.334;3.244;2022-08-25T00:05:20;21.60;99.90
22813;DHT22;11573;51.334;3.244;2022-08-25T00:07:48;21.60;99.90
22813;DHT22;11573;51.334;3.244;2022-08-25T00:10:15;21.60;99.90
22813;DHT22;11573;51.334;3.244;2022-08-25T00:12:41;21.60;99.90
22813;DHT22;11573;51.334;3.244;2022-08-25T00:15:08;21.60;99.90
22813;DHT22;11573;51.334;3.244;2022-08-25T00:17:36;21.60;99.90
22813;DHT22;11573;51.334;3.244;2022-08-25T00:20:04;21.70;99.90
22813;DHT22;11573;51.334;3.244;2022-08-25T00:22:31;21.70;99.90
22813;DHT22;11573;51.334;3.244;2022-08-25T00:24:58;21.70;99.90
22813;DHT22;11573;51.334;3.244;2022-08-25T00:27:25;21.70;99.90
22813;DHT22;11573;51.334;3.244;2022-08-25T00:29:52;21.60;99.90
22813;DHT22;11573;51.334;3.244;2022-08-25T00:32:19;21.70;99.90
22813;DHT22;11573;51.334;3.244;2022-08-25T00:34:46;21.60;99.90
22813;DHT22;11573;51.334;3.244;2022-08-25T00:37:13;21.60;99.90
22813;DHT22;11573;51.334;3.244;2022-08-25T00:39:41;21.50;99.90
22813;DHT22;11573;51.334;3.244;2022-08-25T00:42:08;21.50;99.90
22813;DHT22;11573;51.334;3.244;2022-08-25T00:44:42;21.50;99.90
22813;DHT22;11573;51.334;3.244;2022-08-25T00:47:09;21.50;99.90
22813;DHT22;11573;51.334;3.244;2022-08-25T00:49:47;21.50;99.90
22813;DHT22;11573;51.334;3.244;2022-08-25T00:52:24;21.40;99.90
22813;DHT22;11573;51.334;3.244;2022-08-25T00:55:03;21.40;99.90
22813;DHT22;11573;51.334;3.244;2022-08-25T00:57:43;21.30;99.90
22813;DHT22;11573;51.334;3.244;2022-08-25T01:00:19;21.30;99.90
22813;DHT22;11573;51.334;3.244;2022-08-25T01:02:47;21.20;99.90
22813;DHT22;11573;51.334;3.244;2022-08-25T01:05:14;21.10;99.90
22813;DHT22;11573;51.334;3.244;2022-08-25T01:07:42;21.10;99.90
22813;DHT22;11573;51.334;3.244;2022-08-25T01:10:11;21.00;99.90
22813;DHT22;11573;51.334;3.244;2022-08-25T01:12:39;20.90;99.90
22813;DHT22;11573;51.334;3.244;2022-08-25T01:15:08;20.90;99.90
22813;DHT22;11573;51.334;3.244;2022-08-25T01:17:53;20.80;99.90
22813;DHT22;11573;51.334;3.244;2022-08-25T01:20:23;20.70;99.90
22813;DHT22;11573;51.334;3.244;2022-08-25T01:22:56;20.70;99.90
22813;DHT22;11573;51.334;3.244;2022-08-25T01:25:59;20.70;99.90
22813;DHT22;11573;51.334;3.244;2022-08-25T01:28:27;20.60;99.90
22813;DHT22;11573;51.334;3.244;2022-08-25T01:30:54;20.60;99.90
22813;DHT22;11573;51.334;3.244;2022-08-25T01:33:22;20.70;99.90
22813;DHT22;11573;51.334;3.244;2022-08-25T01:35:49;20.70;99.90
22813;DHT22;11573;51.334;3.244;2022-08-25T01:38:16;20.70;99.90
22813;DHT22;11573;51.334;3.244;2022-08-25T01:40:43;20.70;99.90
22813;DHT22;11573;51.334;3.244;2022-08-25T01:43:11;20.70;99.90
22813;DHT22;11573;51.334;3.244;2022-08-25T01:45:46;20.60;99.90
22813;DHT22;11573;51.334;3.244;2022-08-25T01:48:15;20.60;99.90
22813;DHT22;11573;51.334;3.244;2022-08-25T01:50:42;20.60;99.90
22813;DHT22;11573;51.334;3.244;2022-08-25T01:53:22;20.50;99.90
22813;DHT22;11573;51.334;3.244;2022-08-25T01:55:49;20.50;99.90
22813;DHT22;11573;51.334;3.244;2022-08-25T01:58:24;20.40;99.90
22813;DHT22;11573;51.334;3.244;2022-08-25T02:00:53;20.40;99.90
22813;DHT22;11573;51.334;3.244;2022-08-25T02:03:24;20.30;99.90
22813;DHT22;11573;51.334;3.244;2022-08-25T02:05:52;20.20;99.90
22813;DHT22;11573;51.334;3.244;2022-08-25T02:08:20;20.20;99.90
22813;DHT22;11573;51.334;3.244;2022-08-25T02:10:49;20.20;99.90
22813;DHT22;11573;51.334;3.244;2022-08-25T02:13:17;20.20;99.90
22813;DHT22;11573;51.334;3.244;2022-08-25T02:15:47;20.30;99.90
22813;DHT22;11573;51.334;3.244;2022-08-25T02:18:15;20.20;99.90
22813;DHT22;11573;51.334;3.244;2022-08-25T02:20:43;20.20;99.90
22813;DHT22;11573;51.334;3.244;2022-08-25T02:23:10;20.20;99.90
22813;DHT22;11573;51.334;3.244;2022-08-25T02:25:39;20.20;99.90
22813;DHT22;11573;51.334;3.244;2022-08-25T02:28:07;20.10;99.90
22813;DHT22;11573;51.334;3.244;2022-08-25T02:30:36;20.10;99.90
22813;DHT22;11573;51.334;3.244;2022-08-25T02:33:03;20.10;99.90
22813;DHT22;11573;51.334;3.244;2022-08-25T02:35:30;20.00;99.90
22813;DHT22;11573;51.334;3.244;2022-08-25T02:37:58;20.00;99.90
22813;DHT22;11573;51.334;3.244;2022-08-25T02:40:25;20.00;99.90
22813;DHT22;11573;51.334;3.244;2022-08-25T02:42:52;20.00;99.90
22813;DHT22;11573;51.334;3.244;2022-08-25T02:45:21;19.90;99.90
22813;DHT22;11573;51.334;3.244;2022-08-25T02:47:48;19.90;99.90
22813;DHT22;11573;51.334;3.244;2022-08-25T02:50:15;19.90;99.90
22813;DHT22;11573;51.334;3.244;2022-08-25T02:52:42;19.90;99.90
22813;DHT22;11573;51.334;3.244;2022-08-25T02:55:10;20.00;99.90
22813;DHT22;11573;51.334;3.244;2022-08-25T02:57:40;19.90;99.90
22813;DHT22;11573;51.334;3.244;2022-08-25T03:00:10;19.80;99.90
22813;DHT22;11573;51.334;3.244;2022-08-25T03:02:38;19.80;99.90
22813;DHT22;11573;51.334;3.244;2022-08-25T03:05:08;19.70;99.90
22813;DHT22;11573;51.334;3.244;2022-08-25T03:07:36;19.60;99.90
22813;DHT22;11573;51.334;3.244;2022-08-25T03:10:12;19.60;99.90
22813;DHT22;11573;51.334;3.244;2022-08-25T03:12:40;19.60;99.90
22813;DHT22;11573;51.334;3.244;2022-08-25T03:15:12;19.50;99.90
22813;DHT22;11573;51.334;3.244;2022-08-25T03:17:46;19.50;99.90
22813;DHT22;11573;51.334;3.244;2022-08-25T03:20:17;19.50;99.90
22813;DHT22;11573;51.334;3.244;2022-08-25T03:22:44;19.40;99.90
22813;DHT22;11573;51.334;3.244;2022-08-25T03:25:11;19.40;99.90
22813;DHT22;11573;51.334;3.244;2022-08-25T03:27:56;19.40;99.90
22813;DHT22;11573;51.334;3.244;2022-08-25T03:30:23;19.50;99.90
22813;DHT22;11573;51.334;3.244;2022-08-25T03:32:51;19.40;99.90
22813;DHT22;11573;51.334;3.244;2022-08-25T03:35:18;19.40;99.90
22813;DHT22;11573;51.334;3.244;2022-08-25T03:37:45;19.40;99.90
22813;DHT22;11573;51.334;3.244;2022-08-25T03:40:14;19.40;99.90
22813;DHT22;11573;51.334;3.244;2022-08-25T03:42:44;19.40;99.90
22813;DHT22;11573;51.334;3.244;2022-08-25T03:45:13;19.30;99.90
22813;DHT22;11573;51.334;3.244;2022-08-25T03:47:45;19.30;99.90
22813;DHT22;11573;51.334;3.244;2022-08-25T03:50:13;19.30;99.90
22813;DHT22;11573;51.334;3.244;2022-08-25T03:52:41;19.30;99.90
22813;DHT22;11573;51.334;3.244;2022-08-25T03:55:10;19.30;99.90
22813;DHT22;11573;51.334;3.244;2022-08-25T03:57:37;19.20;99.90
22813;DHT22;11573;51.334;3.244;2022-08-25T04:00:07;19.20;99.90
22813;DHT22;11573;51.334;3.244;2022-08-25T04:02:38;19.20;99.90
22813;DHT22;11573;51.334;3.244;2022-08-25T04:05:06;19.20;99.90
22813;DHT22;11573;51.334;3.244;2022-08-25T04:07:34;19.10;99.90
22813;DHT22;11573;51.334;3.244;2022-08-25T04:10:02;19.10;99.90
22813;DHT22;11573;51.334;3.244;2022-08-25T04:12:29;19.10;99.90
22813;DHT22;11573;51.334;3.244;2022-08-25T04:14:57;19.10;99.90
22813;DHT22;11573;51.334;3.244;2022-08-25T04:17:24;19.10;99.90
22813;DHT22;11573;51.334;3.244;2022-08-25T04:19:51;19.10;99.90
22813;DHT22;11573;51.334;3.244;2022-08-25T04:22:18;19.00;99.90
22813;DHT22;11573;51.334;3.244;2022-08-25T04:25:13;19.00;99.90
22813;DHT22;11573;51.334;3.244;2022-08-25T04:27:40;19.00;99.90
22813;DHT22;11573;51.334;3.244;2022-08-25T04:30:07;19.00;99.90
22813;DHT22;11573;51.334;3.244;2022-08-25T04:32:36;18.90;99.90
22813;DHT22;11573;51.334;3.244;2022-08-25T04:35:03;18.90;99.90
22813;DHT22;11573;51.334;3.244;2022-08-25T04:37:31;18.90;99.90
22813;DHT22;11573;51.334;3.244;2022-08-25T04:39:59;18.90;99.90
22813;DHT22;11573;51.334;3.244;2022-08-25T04:42:27;18.90;99.90
22813;DHT22;11573;51.334;3.244;2022-08-25T04:44:54;18.90;99.90
22813;DHT22;11573;51.334;3.244;2022-08-25T04:47:22;18.90;99.90
22813;DHT22;11573;51.334;3.244;2022-08-25T04:49:49;18.80;99.90
22813;DHT22;11573;51.334;3.244;2022-08-25T04:52:16;18.90;99.90
22813;DHT22;11573;51.334;3.244;2022-08-25T04:54:43;18.80;99.90
22813;DHT22;11573;51.334;3.244;2022-08-25T04:57:10;18.80;99.90
22813;DHT22;11573;51.334;3.244;2022-08-25T04:59:37;18.80;99.90
22813;DHT22;11573;51.334;3.244;2022-08-25T05:02:04;18.80;99.90
22813;DHT22;11573;51.334;3.244;2022-08-25T05:04:34;18.80;99.90
22813;DHT22;11573;51.334;3.244;2022-08-25T05:07:02;18.90;99.90
22813;DHT22;11573;51.334;3.244;2022-08-25T05:09:29;18.90;99.90
22813;DHT22;11573;51.334;3.244;2022-08-25T05:12:02;18.90;99.90
22813;DHT22;11573;51.334;3.244;2022-08-25T05:14:30;18.90;99.90
22813;DHT22;11573;51.334;3.244;2022-08-25T05:16:58;18.90;99.90
22813;DHT22;11573;51.334;3.244;2022-08-25T05:19:25;19.00;99.90
22813;DHT22;11573;51.334;3.244;2022-08-25T05:21:52;19.10;99.90
22813;DHT22;11573;51.334;3.244;2022-08-25T05:24:20;19.30;99.90
22813;DHT22;11573;51.334;3.244;2022-08-25T05:26:48;19.60;99.90
22813;DHT22;11573;51.334;3.244;2022-08-25T05:29:15;19.80;99.90
22813;DHT22;11573;51.334;3.244;2022-08-25T05:31:42;19.90;99.90
22813;DHT22;11573;51.334;3.244;2022-08-25T05:34:16;19.90;99.90
22813;DHT22;11573;51.334;3.244;2022-08-25T05:36:45;19.90;99.90
22813;DHT22;11573;51.334;3.244;2022-08-25T05:39:12;20.00;99.90
22813;DHT22;11573;51.334;3.244;2022-08-25T05:41:39;20.00;99.90
22813;DHT22;11573;51.334;3.244;2022-08-25T05:44:06;20.00;99.90
22813;DHT22;11573;51.334;3.244;2022-08-25T05:46:33;20.00;99.90
22813;DHT22;11573;51.334;3.244;2022-08-25T05:49:00;20.10;99.90
22813;DHT22;11573;51.334;3.244;2022-08-25T05:51:27;20.20;99.90
22813;DHT22;11573;51.334;3.244;2022-08-25T05:53:54;20.40;99.90
22813;DHT22;11573;51.334;3.244;2022-08-25T05:56:21;20.50;99.90
22813;DHT22;11573;51.334;3.244;2022-08-25T05:58:48;20.50;99.90
22813;DHT22;11573;51.334;3.244;2022-08-25T06:01:24;20.60;99.90
22813;DHT22;11573;51.334;3.244;2022-08-25T06:04:11;20.60;99.90
22813;DHT22;11573;51.334;3.244;2022-08-25T06:06:39;20.80;99.90
22813;DHT22;11573;51.334;3.244;2022-08-25T06:09:07;21.00;99.90
22813;DHT22;11573;51.334;3.244;2022-08-25T06:11:39;20.90;99.90
22813;DHT22;11573;51.334;3.244;2022-08-25T06:14:10;21.00;99.90
22813;DHT22;11573;51.334;3.244;2022-08-25T06:16:38;21.20;99.90
22813;DHT22;11573;51.334;3.244;2022-08-25T06:19:06;21.30;99.90
22813;DHT22;11573;51.334;3.244;2022-08-25T06:21:33;21.40;99.90
22813;DHT22;11573;51.334;3.244;2022-08-25T06:24:01;21.40;99.90
22813;DHT22;11573;51.334;3.244;2022-08-25T06:26:27;21.50;99.90
22813;DHT22;11573;51.334;3.244;2022-08-25T06:28:54;21.70;99.90
22813;DHT22;11573;51.334;3.244;2022-08-25T06:31:22;21.80;99.90
22813;DHT22;11573;51.334;3.244;2022-08-25T06:33:49;22.00;99.90
22813;DHT22;11573;51.334;3.244;2022-08-25T06:36:17;22.10;99.90
22813;DHT22;11573;51.334;3.244;2022-08-25T06:38:45;22.30;99.90
22813;DHT22;11573;51.334;3.244;2022-08-25T06:41:13;22.40;99.90
22813;DHT22;11573;51.334;3.244;2022-08-25T06:43:41;22.60;99.90
22813;DHT22;11573;51.334;3.244;2022-08-25T06:46:18;22.60;99.90
22813;DHT22;11573;51.334;3.244;2022-08-25T06:48:46;22.70;99.90
22813;DHT22;11573;51.334;3.244;2022-08-25T06:51:15;23.00;99.90
22813;DHT22;11573;51.334;3.244;2022-08-25T06:53:44;23.10;99.90
22813;DHT22;11573;51.334;3.244;2022-08-25T06:56:12;23.20;99.90
22813;DHT22;11573;51.334;3.244;2022-08-25T06:58:39;23.30;99.90
22813;DHT22;11573;51.334;3.244;2022-08-25T07:03:46;23.50;99.90
22813;DHT22;11573;51.334;3.244;2022-08-25T07:06:14;23.50;99.90
22813;DHT22;11573;51.334;3.244;2022-08-25T07:08:45;23.70;99.90
22813;DHT22;11573;51.334;3.244;2022-08-25T07:11:13;23.80;99.90
22813;DHT22;11573;51.334;3.244;2022-08-25T07:13:42;24.00;99.90
22813;DHT22;11573;51.334;3.244;2022-08-25T07:16:09;24.20;99.90
22813;DHT22;11573;51.334;3.244;2022-08-25T07:18:42;24.50;99.90
22813;DHT22;11573;51.334;3.244;2022-08-25T07:21:11;24.70;99.90
22813;DHT22;11573;51.334;3.244;2022-08-25T07:23:42;24.90;99.90
22813;DHT22;11573;51.334;3.244;2022-08-25T07:26:12;25.00;99.90
22813;DHT22;11573;51.334;3.244;2022-08-25T07:29:00;25.20;99.90
22813;DHT22;11573;51.334;3.244;2022-08-25T07:31:28;25.20;99.90
22813;DHT22;11573;51.334;3.244;2022-08-25T07:33:56;25.20;99.90
22813;DHT22;11573;51.334;3.244;2022-08-25T07:36:43;25.30;99.90
22813;DHT22;11573;51.334;3.244;2022-08-25T07:39:10;25.50;99.90
22813;DHT22;11573;51.334;3.244;2022-08-25T07:41:39;25.50;99.90
22813;DHT22;11573;51.334;3.244;2022-08-25T07:44:08;25.50;99.90
22813;DHT22;11573;51.334;3.244;2022-08-25T07:46:36;25.70;99.90
22813;DHT22;11573;51.334;3.244;2022-08-25T07:49:03;25.90;99.90
22813;DHT22;11573;51.334;3.244;2022-08-25T07:51:43;26.00;99.90
22813;DHT22;11573;51.334;3.244;2022-08-25T07:54:30;25.90;99.90
22813;DHT22;11573;51.334;3.244;2022-08-25T07:57:02;25.90;99.90
22813;DHT22;11573;51.334;3.244;2022-08-25T07:59:29;26.00;99.90
22813;DHT22;11573;51.334;3.244;2022-08-25T08:02:09;26.10;99.90
22813;DHT22;11573;51.334;3.244;2022-08-25T08:04:45;26.20;99.90
22813;DHT22;11573;51.334;3.244;2022-08-25T08:07:17;26.30;99.90
22813;DHT22;11573;51.334;3.244;2022-08-25T08:09:45;26.60;99.90
22813;DHT22;11573;51.334;3.244;2022-08-25T08:12:11;26.60;99.90
22813;DHT22;11573;51.334;3.244;2022-08-25T08:14:41;26.50;99.90
22813;DHT22;11573;51.334;3.244;2022-08-25T08:17:12;26.70;99.90
22813;DHT22;11573;51.334;3.244;2022-08-25T08:19:39;26.80;99.90
22813;DHT22;11573;51.334;3.244;2022-08-25T08:22:12;26.90;99.90
22813;DHT22;11573;51.334;3.244;2022-08-25T08:24:42;27.10;99.90
22813;DHT22;11573;51.334;3.244;2022-08-25T08:27:22;27.20;99.90
22813;DHT22;11573;51.334;3.244;2022-08-25T08:29:49;27.30;99.90
22813;DHT22;11573;51.334;3.244;2022-08-25T08:32:16;27.50;99.90
22813;DHT22;11573;51.334;3.244;2022-08-25T08:34:44;27.50;99.90
22813;DHT22;11573;51.334;3.244;2022-08-25T08:37:17;27.70;99.90
22813;DHT22;11573;51.334;3.244;2022-08-25T08:39:47;27.70;99.90
22813;DHT22;11573;51.334;3.244;2022-08-25T08:42:36;27.70;99.90
22813;DHT22;11573;51.334;3.244;2022-08-25T08:47:52;27.90;99.90
22813;DHT22;11573;51.334;3.244;2022-08-25T08:50:33;27.90;99.90
22813;DHT22;11573;51.334;3.244;2022-08-25T08:53:18;28.20;99.90
22813;DHT22;11573;51.334;3.244;2022-08-25T08:55:51;28.20;99.90
22813;DHT22;11573;51.334;3.244;2022-08-25T08:58:29;28.40;99.90
22813;DHT22;11573;51.334;3.244;2022-08-25T09:01:01;28.70;99.90
22813;DHT22;11573;51.334;3.244;2022-08-25T09:03:51;29.00;99.90
22813;DHT22;11573;51.334;3.244;2022-08-25T09:06:32;29.20;99.90
22813;DHT22;11573;51.334;3.244;2022-08-25T09:09:03;28.90;99.90
22813;DHT22;11573;51.334;3.244;2022-08-25T09:20:28;28.70;99.90
22813;DHT22;11573;51.334;3.244;2022-08-25T09:33:37;28.30;99.90
22813;DHT22;11573;51.334;3.244;2022-08-25T09:36:04;27.90;99.90
22813;DHT22;11573;51.334;3.244;2022-08-25T09:38:32;28.10;99.90
22813;DHT22;11573;51.334;3.244;2022-08-25T09:41:00;28.20;99.90
22813;DHT22;11573;51.334;3.244;2022-08-25T09:43:42;28.00;99.90
22813;DHT22;11573;51.334;3.244;2022-08-25T09:48:46;27.50;99.90
22813;DHT22;11573;51.334;3.244;2022-08-25T09:51:35;27.40;99.90
22813;DHT22;11573;51.334;3.244;2022-08-25T09:56:58;27.30;99.90
22813;DHT22;11573;51.334;3.244;2022-08-25T09:59:35;27.00;99.90
22813;DHT22;11573;51.334;3.244;2022-08-25T10:02:20;26.90;99.90
22813;DHT22;11573;51.334;3.244;2022-08-25T10:04:49;27.00;99.90
22813;DHT22;11573;51.334;3.244;2022-08-25T10:07:35;27.30;99.90
22813;DHT22;11573;51.334;3.244;2022-08-25T10:10:33;27.00;99.90
22813;DHT22;11573;51.334;3.244;2022-08-25T10:13:01;27.10;99.90
22813;DHT22;11573;51.334;3.244;2022-08-25T10:15:34;27.10;99.90
22813;DHT22;11573;51.334;3.244;2022-08-25T10:23:27;27.00;99.90
22813;DHT22;11573;51.334;3.244;2022-08-25T10:26:00;26.80;99.90
22813;DHT22;11573;51.334;3.244;2022-08-25T10:28:48;26.50;99.90
22813;DHT22;11573;51.334;3.244;2022-08-25T10:40:21;26.10;99.90
22813;DHT22;11573;51.334;3.244;2022-08-25T10:43:10;26.50;99.90
22813;DHT22;11573;51.334;3.244;2022-08-25T10:45:50;26.60;99.90
22813;DHT22;11573;51.334;3.244;2022-08-25T10:56:28;26.30;99.90
22813;DHT22;11573;51.334;3.244;2022-08-25T10:59:12;26.30;99.90
22813;DHT22;11573;51.334;3.244;2022-08-25T11:07:24;26.20;99.90
22813;DHT22;11573;51.334;3.244;2022-08-25T11:09:58;26.30;99.90
22813;DHT22;11573;51.334;3.244;2022-08-25T11:12:37;26.30;99.90
22813;DHT22;11573;51.334;3.244;2022-08-25T11:15:10;26.20;99.90
22813;DHT22;11573;51.334;3.244;2022-08-25T11:17:51;26.30;99.90
22813;DHT22;11573;51.334;3.244;2022-08-25T11:20:33;26.40;99.90
22813;DHT22;11573;51.334;3.244;2022-08-25T11:25:46;27.10;99.90
22813;DHT22;11573;51.334;3.244;2022-08-25T11:28:34;27.70;99.90
22813;DHT22;11573;51.334;3.244;2022-08-25T11:31:03;27.60;99.90
22813;DHT22;11573;51.334;3.244;2022-08-25T11:33:31;27.80;99.90
22813;DHT22;11573;51.334;3.244;2022-08-25T11:38:59;27.20;99.90
22813;DHT22;11573;51.334;3.244;2022-08-25T11:50:05;26.80;99.90
22813;DHT22;11573;51.334;3.244;2022-08-25T11:57:51;26.30;99.90
22813;DHT22;11573;51.334;3.244;2022-08-25T12:00:39;26.10;99.90
22813;DHT22;11573;51.334;3.244;2022-08-25T12:06:28;25.60;99.90
22813;DHT22;11573;51.334;3.244;2022-08-25T12:11:42;25.80;99.90
22813;DHT22;11573;51.334;3.244;2022-08-25T12:38:14;26.00;99.90
22813;DHT22;11573;51.334;3.244;2022-08-25T12:43:30;25.50;99.90
22813;DHT22;11573;51.334;3.244;2022-08-25T12:48:59;25.30;99.90
22813;DHT22;11573;51.334;3.244;2022-08-25T12:56:50;25.50;99.90
22813;DHT22;11573;51.334;3.244;2022-08-25T12:59:22;25.40;99.90
22813;DHT22;11573;51.334;3.244;2022-08-25T13:15:31;25.20;99.90
22813;DHT22;11573;51.334;3.244;2022-08-25T13:20:40;25.10;99.90
22813;DHT22;11573;51.334;3.244;2022-08-25T13:23:10;25.30;99.90
22813;DHT22;11573;51.334;3.244;2022-08-25T13:25:46;25.60;99.90
22813;DHT22;11573;51.334;3.244;2022-08-25T13:28:32;25.20;99.90
22813;DHT22;11573;51.334;3.244;2022-08-25T13:31:04;25.20;99.90
22813;DHT22;11573;51.334;3.244;2022-08-25T13:33:32;25.50;99.90
22813;DHT22;11573;51.334;3.244;2022-08-25T13:36:01;25.60;99.90
22813;DHT22;11573;51.334;3.244;2022-08-25T13:38:47;25.70;99.90
22813;DHT22;11573;51.334;3.244;2022-08-25T13:41:25;25.80;99.90
22813;DHT22;11573;51.334;3.244;2022-08-25T13:43:56;25.50;99.90
22813;DHT22;11573;51.334;3.244;2022-08-25T13:46:26;25.40;99.90
22813;DHT22;11573;51.334;3.244;2022-08-25T13:49:05;25.40;99.90
22813;DHT22;11573;51.334;3.244;2022-08-25T13:51:35;25.30;99.90
22813;DHT22;11573;51.334;3.244;2022-08-25T13:54:05;25.50;99.90
22813;DHT22;11573;51.334;3.244;2022-08-25T13:56:37;25.80;99.90
22813;DHT22;11573;51.334;3.244;2022-08-25T13:59:25;25.80;99.90
22813;DHT22;11573;51.334;3.244;2022-08-25T14:01:55;25.60;99.90
22813;DHT22;11573;51.334;3.244;2022-08-25T14:10:07;25.20;99.90
22813;DHT22;11573;51.334;3.244;2022-08-25T14:12:47;25.20;99.90
22813;DHT22;11573;51.334;3.244;2022-08-25T14:17:57;25.10;99.90
22813;DHT22;11573;51.334;3.244;2022-08-25T14:20:27;25.00;99.90
22813;DHT22;11573;51.334;3.244;2022-08-25T14:23:01;24.90;99.90
22813;DHT22;11573;51.334;3.244;2022-08-25T14:25:31;24.90;99.90
22813;DHT22;11573;51.334;3.244;2022-08-25T14:28:02;24.60;99.90
22813;DHT22;11573;51.334;3.244;2022-08-25T14:30:46;24.30;99.90
22813;DHT22;11573;51.334;3.244;2022-08-25T14:33:19;24.30;99.90
22813;DHT22;11573;51.334;3.244;2022-08-25T14:35:49;24.30;99.90
22813;DHT22;11573;51.334;3.244;2022-08-25T14:38:20;24.30;99.90
22813;DHT22;11573;51.334;3.244;2022-08-25T14:40:48;24.40;99.90
22813;DHT22;11573;51.334;3.244;2022-08-25T14:43:16;24.20;99.90
22813;DHT22;11573;51.334;3.244;2022-08-25T14:45:49;24.20;99.90
22813;DHT22;11573;51.334;3.244;2022-08-25T14:48:36;24.20;99.90
22813;DHT22;11573;51.334;3.244;2022-08-25T14:51:05;24.10;99.90
22813;DHT22;11573;51.334;3.244;2022-08-25T14:53:32;24.20;99.90
22813;DHT22;11573;51.334;3.244;2022-08-25T14:55:59;24.20;99.90
22813;DHT22;11573;51.334;3.244;2022-08-25T14:58:34;24.20;99.90
22813;DHT22;11573;51.334;3.244;2022-08-25T15:01:15;24.20;99.90
22813;DHT22;11573;51.334;3.244;2022-08-25T15:03:47;24.30;99.90
22813;DHT22;11573;51.334;3.244;2022-08-25T15:06:16;24.20;99.90
22813;DHT22;11573;51.334;3.244;2022-08-25T15:08:43;24.20;99.90
22813;DHT22;11573;51.334;3.244;2022-08-25T15:11:29;24.00;99.90
22813;DHT22;11573;51.334;3.244;2022-08-25T15:13:57;23.90;99.90
22813;DHT22;11573;51.334;3.244;2022-08-25T15:16:36;23.90;99.90
22813;DHT22;11573;51.334;3.244;2022-08-25T15:19:08;23.80;99.90
22813;DHT22;11573;51.334;3.244;2022-08-25T15:21:36;23.80;99.90
22813;DHT22;11573;51.334;3.244;2022-08-25T15:24:04;23.80;99.90
22813;DHT22;11573;51.334;3.244;2022-08-25T15:27:04;24.20;99.90
22813;DHT22;11573;51.334;3.244;2022-08-25T15:29:35;24.40;99.90
22813;DHT22;11573;51.334;3.244;2022-08-25T15:32:04;24.70;99.90
22813;DHT22;11573;51.334;3.244;2022-08-25T15:34:33;24.80;99.90
22813;DHT22;11573;51.334;3.244;2022-08-25T15:37:09;24.90;99.90
22813;DHT22;11573;51.334;3.244;2022-08-25T15:39:37;24.40;99.90
22813;DHT22;11573;51.334;3.244;2022-08-25T15:42:04;24.30;99.90
22813;DHT22;11573;51.334;3.244;2022-08-25T15:44:32;23.90;99.90
22813;DHT22;11573;51.334;3.244;2022-08-25T15:47:01;23.90;99.90
22813;DHT22;11573;51.334;3.244;2022-08-25T15:49:28;24.10;99.90
22813;DHT22;11573;51.334;3.244;2022-08-25T15:51:57;24.30;99.90
22813;DHT22;11573;51.334;3.244;2022-08-25T15:54:25;24.40;99.90
22813;DHT22;11573;51.334;3.244;2022-08-25T15:56:54;24.10;99.90
22813;DHT22;11573;51.334;3.244;2022-08-25T15:59:22;23.90;99.90
22813;DHT22;11573;51.334;3.244;2022-08-25T16:01:51;23.80;99.90
22813;DHT22;11573;51.334;3.244;2022-08-25T16:04:21;23.80;99.90
22813;DHT22;11573;51.334;3.244;2022-08-25T16:06:49;23.60;99.90
22813;DHT22;11573;51.334;3.244;2022-08-25T16:09:18;23.70;99.90
22813;DHT22;11573;51.334;3.244;2022-08-25T16:11:49;23.70;99.90
22813;DHT22;11573;51.334;3.244;2022-08-25T16:14:24;23.80;99.90
22813;DHT22;11573;51.334;3.244;2022-08-25T16:16:54;23.80;99.90
22813;DHT22;11573;51.334;3.244;2022-08-25T16:19:27;23.70;99.90
22813;DHT22;11573;51.334;3.244;2022-08-25T16:21:58;23.70;99.90
22813;DHT22;11573;51.334;3.244;2022-08-25T16:24:26;23.60;99.90
22813;DHT22;11573;51.334;3.244;2022-08-25T16:26:53;23.60;99.90
22813;DHT22;11573;51.334;3.244;2022-08-25T16:29:38;23.50;99.90
22813;DHT22;11573;51.334;3.244;2022-08-25T16:32:05;23.50;99.90
22813;DHT22;11573;51.334;3.244;2022-08-25T16:34:33;23.40;99.90
22813;DHT22;11573;51.334;3.244;2022-08-25T16:37:01;23.30;99.90
22813;DHT22;11573;51.334;3.244;2022-08-25T16:39:30;23.20;99.90
22813;DHT22;11573;51.334;3.244;2022-08-25T16:41:57;23.30;99.90
22813;DHT22;11573;51.334;3.244;2022-08-25T16:44:24;23.20;99.90
22813;DHT22;11573;51.334;3.244;2022-08-25T16:46:51;23.20;99.90
22813;DHT22;11573;51.334;3.244;2022-08-25T16:49:21;23.10;99.90
22813;DHT22;11573;51.334;3.244;2022-08-25T16:51:51;23.00;99.90
22813;DHT22;11573;51.334;3.244;2022-08-25T16:54:24;23.00;99.90
22813;DHT22;11573;51.334;3.244;2022-08-25T16:57:10;23.10;99.90
22813;DHT22;11573;51.334;3.244;2022-08-25T16:59:37;23.10;99.90
22813;DHT22;11573;51.334;3.244;2022-08-25T17:02:04;23.20;99.90
22813;DHT22;11573;51.334;3.244;2022-08-25T17:04:32;23.20;99.90
22813;DHT22;11573;51.334;3.244;2022-08-25T17:06:59;23.30;99.90
22813;DHT22;11573;51.334;3.244;2022-08-25T17:09:27;23.20;99.90
22813;DHT22;11573;51.334;3.244;2022-08-25T17:11:55;23.20;99.90
22813;DHT22;11573;51.334;3.244;2022-08-25T17:14:23;23.10;99.90
22813;DHT22;11573;51.334;3.244;2022-08-25T17:16:50;23.00;99.90
22813;DHT22;11573;51.334;3.244;2022-08-25T17:19:21;23.00;99.90
22813;DHT22;11573;51.334;3.244;2022-08-25T17:21:50;22.80;99.90
22813;DHT22;11573;51.334;3.244;2022-08-25T17:24:18;22.70;99.90
22813;DHT22;11573;51.334;3.244;2022-08-25T17:26:46;22.80;99.90
22813;DHT22;11573;51.334;3.244;2022-08-25T17:29:16;22.70;99.90
22813;DHT22;11573;51.334;3.244;2022-08-25T17:31:43;22.70;99.90
22813;DHT22;11573;51.334;3.244;2022-08-25T17:34:14;22.70;99.90
22813;DHT22;11573;51.334;3.244;2022-08-25T17:36:42;22.70;99.90
22813;DHT22;11573;51.334;3.244;2022-08-25T17:39:12;22.80;99.90
22813;DHT22;11573;51.334;3.244;2022-08-25T17:41:41;22.80;99.90
22813;DHT22;11573;51.334;3.244;2022-08-25T17:44:10;22.70;99.90
22813;DHT22;11573;51.334;3.244;2022-08-25T17:46:38;22.80;99.90
22813;DHT22;11573;51.334;3.244;2022-08-25T17:49:13;22.80;99.90
22813;DHT22;11573;51.334;3.244;2022-08-25T17:51:41;22.90;99.90
22813;DHT22;11573;51.334;3.244;2022-08-25T17:54:08;22.80;99.90
22813;DHT22;11573;51.334;3.244;2022-08-25T17:56:36;22.60;99.90
22813;DHT22;11573;51.334;3.244;2022-08-25T17:59:04;22.60;99.90
22813;DHT22;11573;51.334;3.244;2022-08-25T18:01:34;22.50;99.90
22813;DHT22;11573;51.334;3.244;2022-08-25T18:04:07;22.40;99.90
22813;DHT22;11573;51.334;3.244;2022-08-25T18:06:44;22.40;99.90
22813;DHT22;11573;51.334;3.244;2022-08-25T18:09:12;22.40;99.90
22813;DHT22;11573;51.334;3.244;2022-08-25T18:11:39;22.30;99.90
22813;DHT22;11573;51.334;3.244;2022-08-25T18:14:08;22.20;99.90
22813;DHT22;11573;51.334;3.244;2022-08-25T18:16:37;22.20;99.90